sensor_id;sensor_type;location;lat;lon;timestamp;P1;durP1;ratioP1;P2;durP2;ratioP2
10529;SDS011;5313;48.834;9.228;2023-02-28T00:02:12;5.80;;;2.40;;
10529;SDS011;5313;48.834;9.228;2023-02-28T00:04:38;5.20;;;2.27;;
10529;SDS011;5313;48.834;9.228;2023-02-28T00:07:03;3.40;;;2.27;;
10529;SDS011;5313;48.834;9.228;2023-02-28T00:09:29;3.73;;;2.33;;
10529;SDS011;5313;48.834;9.228;2023-02-28T00:11:54;2.60;;;2.40;;
10529;SDS011;5313;48.834;9.228;2023-02-28T00:14:20;4.10;;;2.23;;
10529;SDS011;5313;48.834;9.228;2023-02-28T00:16:45;4.07;;;2.37;;
10529;SDS011;5313;48.834;9.228;2023-02-28T00:19:11;3.50;;;2.10;;
10529;SDS011;5313;48.834;9.228;2023-02-28T00:21:38;2.80;;;2.13;;
10529;SDS011;5313;48.834;9.228;2023-02-28T00:24:05;4.23;;;2.20;;
10529;SDS011;5313;48.834;9.228;2023-02-28T00:26:31;3.93;;;2.37;;
10529;SDS011;5313;48.834;9.228;2023-02-28T00:28:57;4.17;;;2.53;;
10529;SDS011;5313;48.834;9.228;2023-02-28T00:31:22;3.77;;;2.37;;
10529;SDS011;5313;48.834;9.228;2023-02-28T00:33:48;3.63;;;2.20;;
10529;SDS011;5313;48.834;9.228;2023-02-28T00:36:13;3.40;;;2.23;;
10529;SDS011;5313;48.834;9.228;2023-02-28T00:38:39;3.50;;;2.17;;
10529;SDS011;5313;48.834;9.228;2023-02-28T00:41:05;3.80;;;2.20;;
10529;SDS011;5313;48.834;9.228;2023-02-28T00:43:32;3.80;;;2.23;;
10529;SDS011;5313;48.834;9.228;2023-02-28T00:46:00;3.07;;;2.20;;
10529;SDS011;5313;48.834;9.228;2023-02-28T00:48:26;3.50;;;2.73;;
10529;SDS011;5313;48.834;9.228;2023-02-28T00:50:52;4.07;;;2.30;;
10529;SDS011;5313;48.834;9.228;2023-02-28T00:53:18;3.33;;;2.27;;
10529;SDS011;5313;48.834;9.228;2023-02-28T00:55:43;3.90;;;2.73;;
10529;SDS011;5313;48.834;9.228;2023-02-28T00:58:09;3.63;;;2.37;;
10529;SDS011;5313;48.834;9.228;2023-02-28T01:00:35;4.60;;;2.60;;
10529;SDS011;5313;48.834;9.228;2023-02-28T01:03:00;4.63;;;2.80;;
10529;SDS011;5313;48.834;9.228;2023-02-28T01:05:26;4.73;;;2.67;;
10529;SDS011;5313;48.834;9.228;2023-02-28T01:07:51;4.70;;;2.77;;
10529;SDS011;5313;48.834;9.228;2023-02-28T01:10:17;3.87;;;2.80;;
10529;SDS011;5313;48.834;9.228;2023-02-28T01:12:42;4.30;;;2.53;;
10529;SDS011;5313;48.834;9.228;2023-02-28T01:15:09;6.07;;;3.00;;
10529;SDS011;5313;48.834;9.228;2023-02-28T01:17:36;4.87;;;2.57;;
10529;SDS011;5313;48.834;9.228;2023-02-28T01:20:01;3.20;;;2.50;;
10529;SDS011;5313;48.834;9.228;2023-02-28T01:22:27;4.47;;;2.73;;
10529;SDS011;5313;48.834;9.228;2023-02-28T01:24:53;5.63;;;3.00;;
10529;SDS011;5313;48.834;9.228;2023-02-28T01:27:18;3.87;;;2.90;;
10529;SDS011;5313;48.834;9.228;2023-02-28T01:29:44;6.40;;;2.60;;
10529;SDS011;5313;48.834;9.228;2023-02-28T01:32:09;4.40;;;2.53;;
10529;SDS011;5313;48.834;9.228;2023-02-28T01:34:35;8.87;;;2.73;;
10529;SDS011;5313;48.834;9.228;2023-02-28T01:37:01;6.27;;;2.80;;
10529;SDS011;5313;48.834;9.228;2023-02-28T01:39:28;3.73;;;2.53;;
10529;SDS011;5313;48.834;9.228;2023-02-28T01:41:54;3.03;;;2.70;;
10529;SDS011;5313;48.834;9.228;2023-02-28T01:47:19;6.33;;;3.00;;
10529;SDS011;5313;48.834;9.228;2023-02-28T01:49:46;3.97;;;2.75;;
10529;SDS011;5313;48.834;9.228;2023-02-28T01:52:12;4.40;;;3.10;;
10529;SDS011;5313;48.834;9.228;2023-02-28T01:54:43;3.47;;;2.77;;
10529;SDS011;5313;48.834;9.228;2023-02-28T01:57:13;4.30;;;3.03;;
10529;SDS011;5313;48.834;9.228;2023-02-28T01:59:59;5.13;;;2.90;;
10529;SDS011;5313;48.834;9.228;2023-02-28T02:02:32;4.63;;;2.80;;
10529;SDS011;5313;48.834;9.228;2023-02-28T02:07:26;3.23;;;2.73;;
10529;SDS011;5313;48.834;9.228;2023-02-28T02:10:01;4.53;;;2.93;;
10529;SDS011;5313;48.834;9.228;2023-02-28T02:12:44;7.20;;;5.47;;
10529;SDS011;5313;48.834;9.228;2023-02-28T02:18:25;4.63;;;3.07;;
10529;SDS011;5313;48.834;9.228;2023-02-28T02:21:06;3.20;;;2.60;;
10529;SDS011;5313;48.834;9.228;2023-02-28T02:24:02;4.87;;;2.90;;
10529;SDS011;5313;48.834;9.228;2023-02-28T02:29:36;5.80;;;3.57;;
10529;SDS011;5313;48.834;9.228;2023-02-28T02:32:28;3.60;;;2.95;;
10529;SDS011;5313;48.834;9.228;2023-02-28T02:35:24;5.30;;;3.20;;
10529;SDS011;5313;48.834;9.228;2023-02-28T02:40:34;4.77;;;3.60;;
10529;SDS011;5313;48.834;9.228;2023-02-28T02:43:08;4.57;;;3.30;;
10529;SDS011;5313;48.834;9.228;2023-02-28T02:45:44;4.97;;;3.60;;
10529;SDS011;5313;48.834;9.228;2023-02-28T02:48:16;5.40;;;3.33;;
10529;SDS011;5313;48.834;9.228;2023-02-28T02:50:45;5.07;;;3.50;;
10529;SDS011;5313;48.834;9.228;2023-02-28T02:53:17;6.43;;;3.50;;
10529;SDS011;5313;48.834;9.228;2023-02-28T02:55:47;5.67;;;3.87;;
10529;SDS011;5313;48.834;9.228;2023-02-28T02:58:19;5.47;;;3.75;;
10529;SDS011;5313;48.834;9.228;2023-02-28T03:00:51;4.73;;;3.23;;
10529;SDS011;5313;48.834;9.228;2023-02-28T03:03:19;3.90;;;3.40;;
10529;SDS011;5313;48.834;9.228;2023-02-28T03:05:54;4.53;;;3.20;;
10529;SDS011;5313;48.834;9.228;2023-02-28T03:08:20;6.77;;;4.40;;
10529;SDS011;5313;48.834;9.228;2023-02-28T03:10:48;4.87;;;3.47;;
10529;SDS011;5313;48.834;9.228;2023-02-28T03:24:11;5.43;;;3.87;;
10529;SDS011;5313;48.834;9.228;2023-02-28T03:26:45;7.90;;;3.67;;
10529;SDS011;5313;48.834;9.228;2023-02-28T03:29:24;7.00;;;3.80;;
10529;SDS011;5313;48.834;9.228;2023-02-28T03:34:37;7.53;;;4.07;;
10529;SDS011;5313;48.834;9.228;2023-02-28T03:37:08;4.57;;;3.60;;
10529;SDS011;5313;48.834;9.228;2023-02-28T03:39:40;6.57;;;3.90;;
10529;SDS011;5313;48.834;9.228;2023-02-28T03:42:23;5.80;;;3.77;;
10529;SDS011;5313;48.834;9.228;2023-02-28T03:44:53;6.53;;;3.87;;
10529;SDS011;5313;48.834;9.228;2023-02-28T03:47:33;5.73;;;4.10;;
10529;SDS011;5313;48.834;9.228;2023-02-28T03:52:35;5.83;;;3.47;;
10529;SDS011;5313;48.834;9.228;2023-02-28T03:55:08;5.30;;;3.97;;
10529;SDS011;5313;48.834;9.228;2023-02-28T03:57:40;6.07;;;4.00;;
10529;SDS011;5313;48.834;9.228;2023-02-28T04:00:26;7.87;;;3.83;;
10529;SDS011;5313;48.834;9.228;2023-02-28T04:02:54;6.03;;;3.87;;
10529;SDS011;5313;48.834;9.228;2023-02-28T04:05:20;5.10;;;3.33;;
10529;SDS011;5313;48.834;9.228;2023-02-28T04:07:46;5.77;;;3.90;;
10529;SDS011;5313;48.834;9.228;2023-02-28T04:10:13;5.90;;;3.70;;
10529;SDS011;5313;48.834;9.228;2023-02-28T04:12:39;5.93;;;3.77;;
10529;SDS011;5313;48.834;9.228;2023-02-28T04:15:05;6.57;;;4.10;;
10529;SDS011;5313;48.834;9.228;2023-02-28T04:17:31;6.63;;;4.33;;
10529;SDS011;5313;48.834;9.228;2023-02-28T04:19:56;5.37;;;3.80;;
10529;SDS011;5313;48.834;9.228;2023-02-28T04:22:22;6.07;;;3.83;;
10529;SDS011;5313;48.834;9.228;2023-02-28T04:24:51;5.57;;;3.97;;
10529;SDS011;5313;48.834;9.228;2023-02-28T04:27:19;7.20;;;4.37;;
10529;SDS011;5313;48.834;9.228;2023-02-28T04:29:45;5.77;;;4.00;;
10529;SDS011;5313;48.834;9.228;2023-02-28T04:32:11;5.40;;;4.20;;
10529;SDS011;5313;48.834;9.228;2023-02-28T04:34:36;6.37;;;4.03;;
10529;SDS011;5313;48.834;9.228;2023-02-28T04:37:02;6.80;;;4.27;;
10529;SDS011;5313;48.834;9.228;2023-02-28T04:39:29;6.70;;;4.23;;
10529;SDS011;5313;48.834;9.228;2023-02-28T04:41:54;8.60;;;4.40;;
10529;SDS011;5313;48.834;9.228;2023-02-28T04:44:21;6.53;;;4.00;;
10529;SDS011;5313;48.834;9.228;2023-02-28T04:46:47;5.23;;;3.90;;
10529;SDS011;5313;48.834;9.228;2023-02-28T04:49:13;8.10;;;3.97;;
10529;SDS011;5313;48.834;9.228;2023-02-28T04:51:40;8.20;;;4.23;;
10529;SDS011;5313;48.834;9.228;2023-02-28T04:54:06;6.33;;;4.00;;
10529;SDS011;5313;48.834;9.228;2023-02-28T04:56:31;6.50;;;4.53;;
10529;SDS011;5313;48.834;9.228;2023-02-28T04:58:57;5.80;;;4.10;;
10529;SDS011;5313;48.834;9.228;2023-02-28T05:01:24;6.40;;;4.10;;
10529;SDS011;5313;48.834;9.228;2023-02-28T05:03:55;6.87;;;4.60;;
10529;SDS011;5313;48.834;9.228;2023-02-28T05:06:26;6.10;;;4.37;;
10529;SDS011;5313;48.834;9.228;2023-02-28T05:08:52;7.00;;;4.00;;
10529;SDS011;5313;48.834;9.228;2023-02-28T05:11:20;8.17;;;4.50;;
10529;SDS011;5313;48.834;9.228;2023-02-28T05:13:48;5.37;;;4.27;;
10529;SDS011;5313;48.834;9.228;2023-02-28T05:16:15;6.17;;;4.30;;
10529;SDS011;5313;48.834;9.228;2023-02-28T05:18:41;6.07;;;4.10;;
10529;SDS011;5313;48.834;9.228;2023-02-28T05:21:14;6.70;;;4.33;;
10529;SDS011;5313;48.834;9.228;2023-02-28T05:24:00;5.93;;;4.43;;
10529;SDS011;5313;48.834;9.228;2023-02-28T05:26:28;6.17;;;4.23;;
10529;SDS011;5313;48.834;9.228;2023-02-28T05:28:54;6.63;;;4.60;;
10529;SDS011;5313;48.834;9.228;2023-02-28T05:31:20;7.23;;;4.67;;
10529;SDS011;5313;48.834;9.228;2023-02-28T05:33:46;7.77;;;4.43;;
10529;SDS011;5313;48.834;9.228;2023-02-28T05:36:12;8.87;;;4.83;;
10529;SDS011;5313;48.834;9.228;2023-02-28T05:38:38;6.63;;;4.43;;
10529;SDS011;5313;48.834;9.228;2023-02-28T05:41:09;7.00;;;4.97;;
10529;SDS011;5313;48.834;9.228;2023-02-28T05:43:36;8.97;;;4.87;;
10529;SDS011;5313;48.834;9.228;2023-02-28T05:46:03;8.70;;;4.93;;
10529;SDS011;5313;48.834;9.228;2023-02-28T05:48:34;6.53;;;4.30;;
10529;SDS011;5313;48.834;9.228;2023-02-28T05:51:00;6.77;;;4.57;;
10529;SDS011;5313;48.834;9.228;2023-02-28T05:53:27;7.97;;;5.27;;
10529;SDS011;5313;48.834;9.228;2023-02-28T05:55:53;8.47;;;5.10;;
10529;SDS011;5313;48.834;9.228;2023-02-28T05:58:18;6.87;;;4.90;;
10529;SDS011;5313;48.834;9.228;2023-02-28T06:00:44;6.90;;;4.27;;
10529;SDS011;5313;48.834;9.228;2023-02-28T06:03:09;7.47;;;4.90;;
10529;SDS011;5313;48.834;9.228;2023-02-28T06:05:35;7.40;;;4.50;;
10529;SDS011;5313;48.834;9.228;2023-02-28T06:08:00;7.23;;;4.63;;
10529;SDS011;5313;48.834;9.228;2023-02-28T06:10:25;6.40;;;4.53;;
10529;SDS011;5313;48.834;9.228;2023-02-28T06:12:51;8.97;;;5.17;;
10529;SDS011;5313;48.834;9.228;2023-02-28T06:15:16;8.53;;;4.93;;
10529;SDS011;5313;48.834;9.228;2023-02-28T06:17:43;8.13;;;4.60;;
10529;SDS011;5313;48.834;9.228;2023-02-28T06:20:09;9.97;;;5.33;;
10529;SDS011;5313;48.834;9.228;2023-02-28T06:22:37;7.10;;;4.67;;
10529;SDS011;5313;48.834;9.228;2023-02-28T06:25:04;7.90;;;5.43;;
10529;SDS011;5313;48.834;9.228;2023-02-28T06:27:30;6.43;;;4.40;;
10529;SDS011;5313;48.834;9.228;2023-02-28T06:29:57;7.30;;;4.60;;
10529;SDS011;5313;48.834;9.228;2023-02-28T06:32:23;6.97;;;4.23;;
10529;SDS011;5313;48.834;9.228;2023-02-28T06:34:48;7.30;;;4.70;;
10529;SDS011;5313;48.834;9.228;2023-02-28T06:37:15;7.90;;;4.47;;
10529;SDS011;5313;48.834;9.228;2023-02-28T06:39:41;10.23;;;4.97;;
10529;SDS011;5313;48.834;9.228;2023-02-28T06:42:06;8.37;;;5.00;;
10529;SDS011;5313;48.834;9.228;2023-02-28T06:44:32;6.47;;;4.37;;
10529;SDS011;5313;48.834;9.228;2023-02-28T06:46:59;7.50;;;4.67;;
10529;SDS011;5313;48.834;9.228;2023-02-28T06:49:28;7.33;;;5.00;;
10529;SDS011;5313;48.834;9.228;2023-02-28T06:51:54;8.40;;;4.90;;
10529;SDS011;5313;48.834;9.228;2023-02-28T06:54:19;7.27;;;4.90;;
10529;SDS011;5313;48.834;9.228;2023-02-28T06:56:45;7.47;;;4.57;;
10529;SDS011;5313;48.834;9.228;2023-02-28T06:59:11;7.47;;;4.40;;
10529;SDS011;5313;48.834;9.228;2023-02-28T07:01:37;10.27;;;5.07;;
10529;SDS011;5313;48.834;9.228;2023-02-28T07:04:04;7.90;;;4.90;;
10529;SDS011;5313;48.834;9.228;2023-02-28T07:06:30;7.97;;;4.77;;
10529;SDS011;5313;48.834;9.228;2023-02-28T07:08:56;7.93;;;4.83;;
10529;SDS011;5313;48.834;9.228;2023-02-28T07:11:22;8.53;;;5.40;;
10529;SDS011;5313;48.834;9.228;2023-02-28T07:13:50;8.40;;;5.10;;
10529;SDS011;5313;48.834;9.228;2023-02-28T07:16:16;8.13;;;5.30;;
10529;SDS011;5313;48.834;9.228;2023-02-28T07:18:42;7.97;;;4.97;;
10529;SDS011;5313;48.834;9.228;2023-02-28T07:21:09;8.13;;;5.10;;
10529;SDS011;5313;48.834;9.228;2023-02-28T07:23:35;7.27;;;5.13;;
10529;SDS011;5313;48.834;9.228;2023-02-28T07:26:03;7.20;;;4.80;;
10529;SDS011;5313;48.834;9.228;2023-02-28T07:28:29;7.30;;;5.17;;
10529;SDS011;5313;48.834;9.228;2023-02-28T07:30:55;8.07;;;4.67;;
10529;SDS011;5313;48.834;9.228;2023-02-28T07:33:20;8.67;;;4.77;;
10529;SDS011;5313;48.834;9.228;2023-02-28T07:35:46;6.80;;;4.70;;
10529;SDS011;5313;48.834;9.228;2023-02-28T07:38:11;9.30;;;5.87;;
10529;SDS011;5313;48.834;9.228;2023-02-28T07:40:38;8.17;;;4.97;;
10529;SDS011;5313;48.834;9.228;2023-02-28T07:43:04;9.60;;;5.10;;
10529;SDS011;5313;48.834;9.228;2023-02-28T07:45:30;8.40;;;5.40;;
10529;SDS011;5313;48.834;9.228;2023-02-28T07:47:59;9.33;;;5.10;;
10529;SDS011;5313;48.834;9.228;2023-02-28T07:50:24;10.33;;;5.23;;
10529;SDS011;5313;48.834;9.228;2023-02-28T07:52:50;7.70;;;5.47;;
10529;SDS011;5313;48.834;9.228;2023-02-28T07:55:15;11.37;;;5.20;;
10529;SDS011;5313;48.834;9.228;2023-02-28T07:57:41;7.87;;;5.83;;
10529;SDS011;5313;48.834;9.228;2023-02-28T08:00:09;9.93;;;5.23;;
10529;SDS011;5313;48.834;9.228;2023-02-28T08:02:35;10.80;;;5.67;;
10529;SDS011;5313;48.834;9.228;2023-02-28T08:05:01;10.23;;;5.77;;
10529;SDS011;5313;48.834;9.228;2023-02-28T08:07:27;7.63;;;5.30;;
10529;SDS011;5313;48.834;9.228;2023-02-28T08:09:53;8.80;;;5.27;;
10529;SDS011;5313;48.834;9.228;2023-02-28T08:12:18;9.13;;;6.50;;
10529;SDS011;5313;48.834;9.228;2023-02-28T08:14:44;7.53;;;5.43;;
10529;SDS011;5313;48.834;9.228;2023-02-28T08:17:10;9.50;;;5.50;;
10529;SDS011;5313;48.834;9.228;2023-02-28T08:19:36;8.10;;;5.37;;
10529;SDS011;5313;48.834;9.228;2023-02-28T08:22:01;9.17;;;5.87;;
10529;SDS011;5313;48.834;9.228;2023-02-28T08:24:27;10.10;;;5.73;;
10529;SDS011;5313;48.834;9.228;2023-02-28T08:26:53;10.20;;;5.83;;
10529;SDS011;5313;48.834;9.228;2023-02-28T08:29:19;9.63;;;6.30;;
10529;SDS011;5313;48.834;9.228;2023-02-28T08:31:44;9.70;;;5.83;;
10529;SDS011;5313;48.834;9.228;2023-02-28T08:34:11;9.83;;;5.90;;
10529;SDS011;5313;48.834;9.228;2023-02-28T08:36:39;8.27;;;5.73;;
10529;SDS011;5313;48.834;9.228;2023-02-28T08:39:05;8.93;;;5.87;;
10529;SDS011;5313;48.834;9.228;2023-02-28T08:41:31;10.50;;;5.57;;
10529;SDS011;5313;48.834;9.228;2023-02-28T08:43:57;7.17;;;5.63;;
10529;SDS011;5313;48.834;9.228;2023-02-28T08:46:22;9.67;;;5.97;;
10529;SDS011;5313;48.834;9.228;2023-02-28T08:48:51;9.23;;;6.47;;
10529;SDS011;5313;48.834;9.228;2023-02-28T08:51:18;10.27;;;6.43;;
10529;SDS011;5313;48.834;9.228;2023-02-28T08:53:51;9.47;;;5.93;;
10529;SDS011;5313;48.834;9.228;2023-02-28T08:56:18;11.73;;;6.20;;
10529;SDS011;5313;48.834;9.228;2023-02-28T08:58:44;12.27;;;6.53;;
10529;SDS011;5313;48.834;9.228;2023-02-28T09:01:12;10.77;;;6.10;;
10529;SDS011;5313;48.834;9.228;2023-02-28T09:03:39;8.13;;;5.80;;
10529;SDS011;5313;48.834;9.228;2023-02-28T09:06:09;9.33;;;6.20;;
10529;SDS011;5313;48.834;9.228;2023-02-28T09:08:35;11.40;;;6.17;;
10529;SDS011;5313;48.834;9.228;2023-02-28T09:11:01;11.50;;;7.53;;
10529;SDS011;5313;48.834;9.228;2023-02-28T09:13:27;10.90;;;6.60;;
10529;SDS011;5313;48.834;9.228;2023-02-28T09:15:54;10.40;;;6.33;;
10529;SDS011;5313;48.834;9.228;2023-02-28T09:18:23;9.13;;;5.73;;
10529;SDS011;5313;48.834;9.228;2023-02-28T09:20:49;8.23;;;6.10;;
10529;SDS011;5313;48.834;9.228;2023-02-28T09:23:15;10.60;;;5.93;;
10529;SDS011;5313;48.834;9.228;2023-02-28T09:25:45;9.67;;;6.43;;
10529;SDS011;5313;48.834;9.228;2023-02-28T09:28:11;10.70;;;6.40;;
10529;SDS011;5313;48.834;9.228;2023-02-28T09:30:37;8.10;;;5.80;;
10529;SDS011;5313;48.834;9.228;2023-02-28T09:33:02;9.57;;;6.67;;
10529;SDS011;5313;48.834;9.228;2023-02-28T09:35:28;10.60;;;7.10;;
10529;SDS011;5313;48.834;9.228;2023-02-28T09:37:55;9.17;;;6.43;;
10529;SDS011;5313;48.834;9.228;2023-02-28T09:40:22;11.43;;;6.60;;
10529;SDS011;5313;48.834;9.228;2023-02-28T09:42:50;11.63;;;6.93;;
10529;SDS011;5313;48.834;9.228;2023-02-28T09:45:31;11.50;;;7.47;;
10529;SDS011;5313;48.834;9.228;2023-02-28T09:48:06;13.70;;;7.20;;
10529;SDS011;5313;48.834;9.228;2023-02-28T09:50:38;8.73;;;5.83;;
10529;SDS011;5313;48.834;9.228;2023-02-28T09:53:19;10.07;;;6.80;;
10529;SDS011;5313;48.834;9.228;2023-02-28T09:55:53;9.53;;;6.83;;
10529;SDS011;5313;48.834;9.228;2023-02-28T10:00:58;10.87;;;6.90;;
10529;SDS011;5313;48.834;9.228;2023-02-28T10:03:46;13.20;;;7.00;;
10529;SDS011;5313;48.834;9.228;2023-02-28T10:06:23;11.53;;;6.93;;
10529;SDS011;5313;48.834;9.228;2023-02-28T10:09:05;10.10;;;6.97;;
10529;SDS011;5313;48.834;9.228;2023-02-28T10:11:40;9.93;;;6.93;;
10529;SDS011;5313;48.834;9.228;2023-02-28T10:16:46;13.87;;;7.10;;
10529;SDS011;5313;48.834;9.228;2023-02-28T10:19:26;9.43;;;7.20;;
10529;SDS011;5313;48.834;9.228;2023-02-28T10:22:11;11.40;;;6.50;;
10529;SDS011;5313;48.834;9.228;2023-02-28T10:24:44;11.33;;;7.50;;
10529;SDS011;5313;48.834;9.228;2023-02-28T10:29:40;10.43;;;7.13;;
10529;SDS011;5313;48.834;9.228;2023-02-28T10:32:09;10.90;;;7.20;;
10529;SDS011;5313;48.834;9.228;2023-02-28T10:34:39;11.27;;;7.70;;
10529;SDS011;5313;48.834;9.228;2023-02-28T10:37:05;11.73;;;7.40;;
10529;SDS011;5313;48.834;9.228;2023-02-28T10:42:01;10.53;;;7.00;;
10529;SDS011;5313;48.834;9.228;2023-02-28T10:44:27;11.90;;;7.20;;
10529;SDS011;5313;48.834;9.228;2023-02-28T10:46:52;11.17;;;7.30;;
10529;SDS011;5313;48.834;9.228;2023-02-28T10:49:22;10.17;;;7.47;;
10529;SDS011;5313;48.834;9.228;2023-02-28T10:51:51;8.10;;;6.63;;
10529;SDS011;5313;48.834;9.228;2023-02-28T10:54:22;10.67;;;6.67;;
10529;SDS011;5313;48.834;9.228;2023-02-28T10:59:50;11.83;;;7.60;;
10529;SDS011;5313;48.834;9.228;2023-02-28T11:02:38;10.50;;;7.07;;
10529;SDS011;5313;48.834;9.228;2023-02-28T11:07:53;10.60;;;7.43;;
10529;SDS011;5313;48.834;9.228;2023-02-28T11:10:21;10.13;;;7.50;;
10529;SDS011;5313;48.834;9.228;2023-02-28T11:12:50;10.93;;;7.17;;
10529;SDS011;5313;48.834;9.228;2023-02-28T11:17:52;13.20;;;6.97;;
10529;SDS011;5313;48.834;9.228;2023-02-28T11:20:26;12.27;;;7.53;;
10529;SDS011;5313;48.834;9.228;2023-02-28T11:22:55;11.00;;;7.70;;
10529;SDS011;5313;48.834;9.228;2023-02-28T11:25:27;10.00;;;6.73;;
10529;SDS011;5313;48.834;9.228;2023-02-28T11:27:57;10.63;;;7.50;;
10529;SDS011;5313;48.834;9.228;2023-02-28T11:30:27;10.30;;;7.03;;
10529;SDS011;5313;48.834;9.228;2023-02-28T11:33:26;10.47;;;6.90;;
10529;SDS011;5313;48.834;9.228;2023-02-28T11:35:55;9.30;;;7.17;;
10529;SDS011;5313;48.834;9.228;2023-02-28T11:38:25;10.40;;;7.03;;
10529;SDS011;5313;48.834;9.228;2023-02-28T11:46:29;9.17;;;6.37;;
10529;SDS011;5313;48.834;9.228;2023-02-28T12:00:56;11.17;;;7.50;;
10529;SDS011;5313;48.834;9.228;2023-02-28T12:06:24;8.37;;;6.47;;
10529;SDS011;5313;48.834;9.228;2023-02-28T12:11:52;10.53;;;6.87;;
10529;SDS011;5313;48.834;9.228;2023-02-28T12:28:25;8.70;;;6.57;;
10529;SDS011;5313;48.834;9.228;2023-02-28T12:30:58;8.03;;;6.50;;
10529;SDS011;5313;48.834;9.228;2023-02-28T12:33:32;9.80;;;6.80;;
10529;SDS011;5313;48.834;9.228;2023-02-28T12:36:03;9.03;;;7.17;;
10529;SDS011;5313;48.834;9.228;2023-02-28T12:38:40;8.80;;;6.47;;
10529;SDS011;5313;48.834;9.228;2023-02-28T12:41:12;9.17;;;6.47;;
10529;SDS011;5313;48.834;9.228;2023-02-28T12:44:01;9.40;;;6.53;;
10529;SDS011;5313;48.834;9.228;2023-02-28T12:46:36;9.13;;;6.60;;
10529;SDS011;5313;48.834;9.228;2023-02-28T12:49:17;8.87;;;6.40;;
10529;SDS011;5313;48.834;9.228;2023-02-28T12:51:49;8.30;;;6.40;;
10529;SDS011;5313;48.834;9.228;2023-02-28T12:59:45;8.63;;;6.87;;
10529;SDS011;5313;48.834;9.228;2023-02-28T13:02:26;9.23;;;6.17;;
10529;SDS011;5313;48.834;9.228;2023-02-28T13:10:24;8.77;;;6.90;;
10529;SDS011;5313;48.834;9.228;2023-02-28T13:13:02;9.67;;;6.30;;
10529;SDS011;5313;48.834;9.228;2023-02-28T13:15:28;9.80;;;6.97;;
10529;SDS011;5313;48.834;9.228;2023-02-28T13:17:55;8.87;;;6.90;;
10529;SDS011;5313;48.834;9.228;2023-02-28T13:20:23;9.40;;;6.70;;
10529;SDS011;5313;48.834;9.228;2023-02-28T13:22:52;9.90;;;6.63;;
10529;SDS011;5313;48.834;9.228;2023-02-28T13:27:56;9.00;;;6.87;;
10529;SDS011;5313;48.834;9.228;2023-02-28T13:33:35;7.50;;;5.97;;
10529;SDS011;5313;48.834;9.228;2023-02-28T13:38:42;8.17;;;6.20;;
10529;SDS011;5313;48.834;9.228;2023-02-28T13:44:06;9.07;;;6.37;;
10529;SDS011;5313;48.834;9.228;2023-02-28T13:46:32;9.27;;;6.53;;
10529;SDS011;5313;48.834;9.228;2023-02-28T14:00:19;9.93;;;6.33;;
10529;SDS011;5313;48.834;9.228;2023-02-28T14:05:46;10.57;;;6.67;;
10529;SDS011;5313;48.834;9.228;2023-02-28T14:08:16;8.90;;;6.70;;
10529;SDS011;5313;48.834;9.228;2023-02-28T14:10:46;8.03;;;6.20;;
10529;SDS011;5313;48.834;9.228;2023-02-28T14:20:54;8.97;;;6.50;;
10529;SDS011;5313;48.834;9.228;2023-02-28T14:26:53;7.63;;;6.00;;
10529;SDS011;5313;48.834;9.228;2023-02-28T14:30:01;8.27;;;6.37;;
10529;SDS011;5313;48.834;9.228;2023-02-28T14:32:58;10.60;;;6.97;;
10529;SDS011;5313;48.834;9.228;2023-02-28T14:35:55;9.50;;;6.73;;
10529;SDS011;5313;48.834;9.228;2023-02-28T14:38:29;8.67;;;6.50;;
10529;SDS011;5313;48.834;9.228;2023-02-28T14:40:58;9.30;;;6.37;;
10529;SDS011;5313;48.834;9.228;2023-02-28T14:43:28;10.83;;;6.63;;
10529;SDS011;5313;48.834;9.228;2023-02-28T14:45:54;9.43;;;6.30;;
10529;SDS011;5313;48.834;9.228;2023-02-28T14:48:22;8.73;;;6.73;;
10529;SDS011;5313;48.834;9.228;2023-02-28T14:50:51;9.60;;;6.80;;
10529;SDS011;5313;48.834;9.228;2023-02-28T14:53:19;9.87;;;6.47;;
10529;SDS011;5313;48.834;9.228;2023-02-28T14:55:47;8.00;;;6.37;;
10529;SDS011;5313;48.834;9.228;2023-02-28T14:58:27;10.23;;;7.03;;
10529;SDS011;5313;48.834;9.228;2023-02-28T15:00:57;7.63;;;6.00;;
10529;SDS011;5313;48.834;9.228;2023-02-28T15:06:00;9.47;;;6.67;;
10529;SDS011;5313;48.834;9.228;2023-02-28T15:08:28;9.37;;;7.00;;
10529;SDS011;5313;48.834;9.228;2023-02-28T15:11:01;8.97;;;6.80;;
10529;SDS011;5313;48.834;9.228;2023-02-28T15:13:40;9.63;;;6.87;;
10529;SDS011;5313;48.834;9.228;2023-02-28T15:16:08;9.33;;;7.13;;
10529;SDS011;5313;48.834;9.228;2023-02-28T15:21:22;11.50;;;7.50;;
10529;SDS011;5313;48.834;9.228;2023-02-28T15:24:16;11.27;;;7.17;;
10529;SDS011;5313;48.834;9.228;2023-02-28T15:26:56;9.70;;;7.10;;
10529;SDS011;5313;48.834;9.228;2023-02-28T15:29:24;10.97;;;6.83;;
10529;SDS011;5313;48.834;9.228;2023-02-28T15:32:05;11.13;;;7.30;;
10529;SDS011;5313;48.834;9.228;2023-02-28T15:34:36;11.03;;;6.73;;
10529;SDS011;5313;48.834;9.228;2023-02-28T15:37:46;10.17;;;7.27;;
10529;SDS011;5313;48.834;9.228;2023-02-28T15:39:55;9.03;;;6.77;;
10529;SDS011;5313;48.834;9.228;2023-02-28T15:42:22;9.83;;;7.03;;
10529;SDS011;5313;48.834;9.228;2023-02-28T15:44:52;8.17;;;6.67;;
10529;SDS011;5313;48.834;9.228;2023-02-28T15:47:22;12.17;;;7.10;;
10529;SDS011;5313;48.834;9.228;2023-02-28T15:49:52;9.50;;;6.80;;
10529;SDS011;5313;48.834;9.228;2023-02-28T15:55:07;9.83;;;6.90;;
10529;SDS011;5313;48.834;9.228;2023-02-28T15:57:42;9.87;;;7.00;;
10529;SDS011;5313;48.834;9.228;2023-02-28T16:00:13;11.50;;;6.90;;
10529;SDS011;5313;48.834;9.228;2023-02-28T16:02:40;9.50;;;6.93;;
10529;SDS011;5313;48.834;9.228;2023-02-28T16:07:32;10.40;;;7.30;;
10529;SDS011;5313;48.834;9.228;2023-02-28T16:09:59;9.73;;;7.47;;
10529;SDS011;5313;48.834;9.228;2023-02-28T16:12:26;11.87;;;7.37;;
10529;SDS011;5313;48.834;9.228;2023-02-28T16:14:54;9.63;;;6.77;;
10529;SDS011;5313;48.834;9.228;2023-02-28T16:17:23;11.53;;;7.43;;
10529;SDS011;5313;48.834;9.228;2023-02-28T16:19:51;9.67;;;6.87;;
10529;SDS011;5313;48.834;9.228;2023-02-28T16:22:17;9.70;;;7.47;;
10529;SDS011;5313;48.834;9.228;2023-02-28T16:24:43;10.57;;;7.37;;
10529;SDS011;5313;48.834;9.228;2023-02-28T16:27:19;10.60;;;7.50;;
10529;SDS011;5313;48.834;9.228;2023-02-28T16:29:48;11.60;;;7.10;;
10529;SDS011;5313;48.834;9.228;2023-02-28T16:32:14;11.73;;;7.30;;
10529;SDS011;5313;48.834;9.228;2023-02-28T16:34:41;10.47;;;7.57;;
10529;SDS011;5313;48.834;9.228;2023-02-28T16:37:14;10.37;;;7.40;;
10529;SDS011;5313;48.834;9.228;2023-02-28T16:39:42;10.80;;;7.77;;
10529;SDS011;5313;48.834;9.228;2023-02-28T16:42:14;11.27;;;7.27;;
10529;SDS011;5313;48.834;9.228;2023-02-28T16:44:51;9.67;;;6.87;;
10529;SDS011;5313;48.834;9.228;2023-02-28T16:47:17;11.77;;;7.27;;
10529;SDS011;5313;48.834;9.228;2023-02-28T16:49:44;12.23;;;7.90;;
10529;SDS011;5313;48.834;9.228;2023-02-28T16:52:10;16.87;;;8.70;;
10529;SDS011;5313;48.834;9.228;2023-02-28T16:54:36;11.47;;;7.40;;
10529;SDS011;5313;48.834;9.228;2023-02-28T16:57:03;12.07;;;7.50;;
10529;SDS011;5313;48.834;9.228;2023-02-28T16:59:29;11.07;;;7.20;;
10529;SDS011;5313;48.834;9.228;2023-02-28T17:01:56;13.07;;;7.80;;
10529;SDS011;5313;48.834;9.228;2023-02-28T17:04:23;10.20;;;7.77;;
10529;SDS011;5313;48.834;9.228;2023-02-28T17:06:50;9.60;;;7.23;;
10529;SDS011;5313;48.834;9.228;2023-02-28T17:09:22;9.23;;;7.03;;
10529;SDS011;5313;48.834;9.228;2023-02-28T17:11:50;13.50;;;8.30;;
10529;SDS011;5313;48.834;9.228;2023-02-28T17:14:15;16.37;;;9.17;;
10529;SDS011;5313;48.834;9.228;2023-02-28T17:16:41;17.03;;;9.30;;
10529;SDS011;5313;48.834;9.228;2023-02-28T17:19:11;14.37;;;9.07;;
10529;SDS011;5313;48.834;9.228;2023-02-28T17:21:38;12.60;;;8.73;;
10529;SDS011;5313;48.834;9.228;2023-02-28T17:24:06;12.97;;;8.97;;
10529;SDS011;5313;48.834;9.228;2023-02-28T17:26:32;18.27;;;9.33;;
10529;SDS011;5313;48.834;9.228;2023-02-28T17:28:57;13.17;;;9.13;;
10529;SDS011;5313;48.834;9.228;2023-02-28T17:31:24;15.23;;;10.00;;
10529;SDS011;5313;48.834;9.228;2023-02-28T17:33:51;14.87;;;10.17;;
10529;SDS011;5313;48.834;9.228;2023-02-28T17:36:21;15.10;;;9.57;;